createdAt,value
2023-05-22T00:00:13.941Z,21.73
2023-05-22T00:02:43.579Z,19.93
2023-05-22T00:05:14.517Z,22.93
2023-05-22T00:07:42.938Z,21.53
2023-05-22T00:10:09.989Z,24.23
2023-05-22T00:12:36.416Z,23.47
2023-05-22T00:15:03.911Z,20.73
2023-05-22T00:17:31.027Z,21.97
2023-05-22T00:20:04.478Z,23.20
2023-05-22T00:22:31.594Z,24.97
2023-05-22T00:24:58.209Z,22.70
2023-05-22T00:27:24.752Z,20.83
2023-05-22T00:29:51.139Z,21.13
2023-05-22T00:32:17.499Z,19.97
2023-05-22T00:34:43.952Z,21.80
2023-05-22T00:37:10.798Z,21.27
2023-05-22T00:39:37.177Z,20.67
2023-05-22T00:42:03.894Z,21.93
2023-05-22T00:44:30.368Z,19.57
2023-05-22T00:46:57.063Z,20.47
2023-05-22T00:49:23.528Z,23.93
2023-05-22T00:51:50.208Z,19.47
2023-05-22T00:54:17.155Z,23.00
2023-05-22T00:56:43.878Z,23.03
2023-05-22T00:59:10.416Z,22.50
2023-05-22T01:01:42.222Z,21.17
2023-05-22T01:04:12.896Z,22.47
2023-05-22T01:06:41.225Z,21.80
2023-05-22T01:09:08.095Z,21.20
2023-05-22T01:11:53.334Z,22.57
2023-05-22T01:15:02.738Z,23.90
2023-05-22T01:17:40.677Z,24.47
2023-05-22T01:20:16.818Z,21.73
2023-05-22T01:23:20.616Z,23.17
2023-05-22T01:26:08.211Z,23.67
2023-05-22T01:28:52.501Z,24.37
2023-05-22T01:31:24.788Z,25.97
2023-05-22T01:33:54.616Z,25.00
2023-05-22T01:36:24.595Z,23.37
2023-05-22T01:38:52.703Z,21.83
2023-05-22T01:41:19.314Z,23.27
2023-05-22T01:43:46.443Z,22.87
2023-05-22T01:46:13.206Z,25.07
2023-05-22T01:48:39.582Z,23.07
2023-05-22T01:51:18.871Z,23.67
2023-05-22T01:53:55.172Z,25.90
2023-05-22T01:56:34.523Z,22.57
2023-05-22T01:59:08.640Z,22.17
2023-05-22T02:01:38.245Z,22.93
2023-05-22T02:04:05.795Z,22.60
2023-05-22T02:06:33.325Z,28.80
2023-05-22T02:09:02.008Z,23.77
2023-05-22T02:11:32.313Z,26.90
2023-05-22T02:13:58.793Z,24.10
2023-05-22T02:16:25.241Z,26.33
2023-05-22T02:18:54.057Z,22.93
2023-05-22T02:21:22.129Z,26.37
2023-05-22T02:23:48.477Z,23.83
2023-05-22T02:26:14.799Z,25.47
2023-05-22T02:28:42.875Z,24.50
2023-05-22T02:31:09.279Z,23.73
2023-05-22T02:33:35.690Z,25.20
2023-05-22T02:36:02.295Z,24.70
2023-05-22T02:38:28.635Z,25.97
2023-05-22T02:40:55.010Z,25.27
2023-05-22T02:43:21.454Z,23.47
2023-05-22T02:45:47.836Z,24.70
2023-05-22T02:48:14.214Z,26.77
2023-05-22T02:50:40.976Z,27.20
2023-05-22T02:53:08.317Z,26.63
2023-05-22T02:55:34.699Z,26.77
2023-05-22T02:58:01.142Z,26.33
2023-05-22T03:00:27.662Z,24.47
2023-05-22T03:02:54.094Z,28.80
2023-05-22T03:05:20.575Z,25.40
2023-05-22T03:07:48.823Z,26.43
2023-05-22T03:10:15.500Z,27.00
2023-05-22T03:12:41.887Z,26.07
2023-05-22T03:15:08.854Z,26.07
2023-05-22T03:17:35.286Z,28.00
2023-05-22T03:20:01.794Z,26.27
2023-05-22T03:22:28.132Z,29.33
2023-05-22T03:24:54.514Z,25.63
2023-05-22T03:27:21.172Z,26.60
2023-05-22T03:29:47.502Z,26.20
2023-05-22T03:32:13.843Z,24.97
2023-05-22T03:34:40.340Z,27.60
2023-05-22T03:37:06.805Z,26.87
2023-05-22T03:39:33.194Z,29.10
2023-05-22T03:41:59.561Z,29.87
2023-05-22T03:44:25.946Z,25.97
2023-05-22T03:46:52.347Z,25.07
2023-05-22T03:49:18.690Z,28.87
2023-05-22T03:51:45.097Z,31.00
2023-05-22T03:54:11.508Z,28.87
2023-05-22T03:56:37.877Z,26.43
2023-05-22T03:59:04.233Z,26.77
2023-05-22T04:01:30.912Z,29.47
2023-05-22T04:03:57.359Z,29.77
2023-05-22T04:06:23.730Z,30.30
2023-05-22T04:08:50.164Z,28.50
2023-05-22T04:11:19.681Z,28.27
2023-05-22T04:13:46.015Z,30.50
2023-05-22T04:16:12.443Z,28.70
2023-05-22T04:18:38.924Z,30.10
2023-05-22T04:21:08.089Z,26.83
2023-05-22T04:23:34.526Z,28.57
2023-05-22T04:26:02.491Z,27.17
2023-05-22T04:28:30.322Z,28.87
2023-05-22T04:31:00.534Z,27.23
2023-05-22T04:33:26.919Z,26.17
2023-05-22T04:35:54.364Z,27.97
2023-05-22T04:38:21.762Z,27.53
2023-05-22T04:40:48.285Z,27.60
2023-05-22T04:43:14.689Z,27.60
2023-05-22T04:45:42.257Z,28.17
2023-05-22T04:48:08.763Z,28.13
2023-05-22T04:50:35.943Z,24.80
2023-05-22T04:53:04.132Z,27.00
2023-05-22T04:55:33.707Z,27.43
2023-05-22T04:58:00.277Z,22.60
2023-05-22T05:00:28.660Z,29.43
2023-05-22T05:02:55.183Z,27.70
2023-05-22T05:05:21.817Z,25.07
2023-05-22T05:07:50.200Z,25.87
2023-05-22T05:10:16.861Z,26.10
2023-05-22T05:12:43.679Z,24.53
2023-05-22T05:15:10.408Z,28.00
2023-05-22T05:17:36.874Z,27.57
2023-05-22T05:20:06.972Z,26.80
2023-05-22T05:22:33.611Z,24.10
2023-05-22T05:24:59.993Z,29.07
2023-05-22T05:27:26.448Z,23.40
2023-05-22T05:29:52.832Z,26.63
2023-05-22T05:32:19.271Z,25.00
2023-05-22T05:34:46.256Z,30.20
2023-05-22T05:37:12.655Z,27.07
2023-05-22T05:39:39.044Z,24.97
2023-05-22T05:42:05.643Z,26.37
2023-05-22T05:44:32.286Z,27.73
2023-05-22T05:46:58.703Z,25.80
2023-05-22T05:49:25.087Z,28.23
2023-05-22T05:51:51.469Z,28.70
2023-05-22T05:54:17.897Z,29.00
2023-05-22T05:56:44.347Z,27.13
2023-05-22T05:59:10.832Z,29.50
2023-05-22T06:01:38.504Z,29.67
2023-05-22T06:04:05.369Z,27.13
2023-05-22T06:06:39.129Z,27.07
2023-05-22T06:09:06.542Z,26.70
2023-05-22T06:11:33.842Z,25.07
2023-05-22T06:14:02.697Z,25.53
2023-05-22T06:16:29.490Z,27.77
2023-05-22T06:18:57.200Z,25.87
2023-05-22T06:21:24.413Z,23.87
2023-05-22T06:23:51.614Z,27.17
2023-05-22T06:26:18.049Z,26.87
2023-05-22T06:28:45.543Z,26.50
2023-05-22T06:31:12.153Z,25.93
2023-05-22T06:33:40.563Z,23.75
2023-05-22T06:36:08.785Z,24.92
2023-05-22T06:38:35.214Z,19.88
2023-05-22T06:41:01.845Z,22.80
2023-05-22T06:43:28.224Z,26.30
2023-05-22T06:45:54.627Z,23.10
2023-05-22T06:48:21.024Z,20.35
2023-05-22T06:50:47.511Z,22.95
2023-05-22T06:53:14.032Z,20.40
2023-05-22T06:55:40.396Z,23.80
2023-05-22T06:58:06.935Z,20.25
2023-05-22T07:00:33.333Z,16.85
2023-05-22T07:02:59.777Z,21.00
2023-05-22T07:05:26.223Z,18.65
2023-05-22T07:07:52.649Z,20.85
2023-05-22T07:10:19.035Z,17.58
2023-05-22T07:12:45.401Z,16.45
2023-05-22T07:15:14.285Z,16.17
2023-05-22T07:17:41.666Z,13.48
2023-05-22T07:20:09.616Z,15.65
2023-05-22T07:22:35.992Z,12.18
2023-05-22T07:25:02.364Z,12.55
2023-05-22T07:27:28.694Z,23.80
2023-05-22T07:29:55.038Z,14.48
2023-05-22T07:32:21.427Z,10.48
2023-05-22T07:34:47.992Z,11.50
2023-05-22T07:37:15.622Z,14.85
2023-05-22T07:39:42.420Z,12.98
2023-05-22T07:42:08.904Z,14.00
2023-05-22T07:44:35.445Z,15.60
2023-05-22T07:47:01.792Z,14.48
2023-05-22T07:49:28.202Z,16.35
2023-05-22T07:51:55.803Z,15.13
2023-05-22T07:54:22.141Z,13.57
2023-05-22T07:56:48.654Z,14.55
2023-05-22T07:59:16.018Z,12.63
2023-05-22T08:01:42.449Z,13.07
2023-05-22T08:04:09.160Z,27.10
2023-05-22T08:06:35.995Z,21.00
2023-05-22T08:09:03.348Z,15.60
2023-05-22T08:11:29.809Z,13.68
2023-05-22T08:13:56.405Z,19.02
2023-05-22T08:16:23.102Z,16.33
2023-05-22T08:18:49.851Z,12.23
2023-05-22T08:21:16.329Z,17.52
2023-05-22T08:23:42.813Z,14.55
2023-05-22T08:26:09.478Z,13.93
2023-05-22T08:28:36.828Z,14.43
2023-05-22T08:31:03.292Z,14.93
2023-05-22T08:33:29.813Z,15.52
2023-05-22T08:35:56.238Z,15.88
2023-05-22T08:38:22.627Z,12.75
2023-05-22T08:40:50.077Z,13.18
2023-05-22T08:43:16.750Z,15.40
2023-05-22T08:45:44.059Z,17.38
2023-05-22T08:48:13.364Z,19.02
2023-05-22T08:50:43.322Z,15.82
2023-05-22T08:53:13.508Z,13.07
2023-05-22T08:55:40.434Z,18.38
2023-05-22T08:58:08.602Z,13.98
2023-05-22T09:00:35.125Z,16.23
2023-05-22T09:03:01.928Z,14.90
2023-05-22T09:05:28.362Z,18.20
2023-05-22T09:07:56.594Z,16.92
2023-05-22T09:10:25.542Z,19.98
2023-05-22T09:13:09.227Z,14.93
2023-05-22T09:15:38.724Z,19.02
2023-05-22T09:18:05.943Z,18.98
2023-05-22T09:20:37.696Z,14.98
2023-05-22T09:23:12.430Z,16.35
2023-05-22T09:25:38.864Z,16.73
2023-05-22T09:28:05.874Z,16.65
2023-05-22T09:30:36.115Z,11.95
2023-05-22T09:33:04.094Z,14.00
2023-05-22T09:35:35.464Z,15.40
2023-05-22T09:38:01.949Z,14.38
2023-05-22T09:40:29.319Z,13.30
2023-05-22T09:42:55.701Z,13.10
2023-05-22T09:45:26.333Z,13.15
2023-05-22T09:47:52.815Z,14.23
2023-05-22T09:50:19.452Z,16.00
2023-05-22T09:52:46.835Z,14.60
2023-05-22T09:55:14.031Z,14.05
2023-05-22T09:57:40.428Z,14.65
2023-05-22T10:00:15.429Z,13.23
2023-05-22T10:02:53.718Z,12.82
2023-05-22T10:05:21.979Z,17.67
2023-05-22T10:07:57.175Z,14.50
2023-05-22T10:10:25.197Z,14.20
2023-05-22T10:13:06.370Z,35.15
2023-05-22T10:15:32.841Z,12.50
2023-05-22T10:17:59.279Z,14.98
2023-05-22T10:20:26.818Z,15.85
2023-05-22T10:22:54.134Z,14.48
2023-05-22T10:25:23.356Z,13.32
2023-05-22T10:27:53.021Z,19.48
2023-05-22T10:30:36.378Z,13.82
2023-05-22T10:33:14.458Z,11.45
2023-05-22T10:35:51.296Z,12.05
2023-05-22T10:39:05.121Z,13.15
2023-05-22T10:41:31.857Z,13.98
2023-05-22T10:43:58.333Z,13.70
2023-05-22T10:46:25.370Z,13.63
2023-05-22T10:48:54.215Z,13.18
2023-05-22T10:51:23.850Z,14.05
2023-05-22T10:53:58.752Z,11.90
2023-05-22T10:56:33.129Z,14.13
2023-05-22T10:59:05.206Z,11.75
2023-05-22T11:01:37.482Z,15.00
2023-05-22T11:04:03.993Z,13.13
2023-05-22T11:06:47.574Z,13.88
2023-05-22T11:09:33.934Z,17.30
2023-05-22T11:12:17.265Z,14.38
2023-05-22T11:14:49.297Z,16.25
2023-05-22T11:17:29.179Z,14.77
2023-05-22T11:20:06.006Z,13.48
2023-05-22T11:22:37.151Z,12.95
2023-05-22T11:25:07.077Z,13.60
2023-05-22T11:27:33.828Z,14.63
2023-05-22T11:30:01.175Z,19.35
2023-05-22T11:32:28.121Z,16.50
2023-05-22T11:34:57.321Z,14.40
2023-05-22T11:37:24.203Z,17.40
2023-05-22T11:39:57.719Z,18.42
2023-05-22T11:42:25.007Z,15.48
2023-05-22T11:44:51.514Z,13.43
2023-05-22T11:47:18.405Z,13.32
2023-05-22T11:49:44.905Z,14.25
2023-05-22T11:52:11.351Z,15.00
2023-05-22T11:54:38.943Z,16.45
2023-05-22T11:57:07.979Z,17.63
2023-05-22T11:59:37.538Z,18.90
2023-05-22T12:02:04.118Z,12.63
2023-05-22T12:04:32.353Z,14.57
2023-05-22T12:06:59.522Z,19.75
2023-05-22T12:09:28.805Z,14.77
2023-05-22T12:11:56.809Z,14.55
2023-05-22T12:14:28.136Z,15.00
2023-05-22T12:16:55.307Z,13.60
2023-05-22T12:19:22.127Z,15.52
2023-05-22T12:21:52.361Z,13.02
2023-05-22T12:24:27.953Z,13.55
2023-05-22T12:26:54.589Z,13.82
2023-05-22T12:29:24.858Z,16.83
2023-05-22T12:31:51.769Z,14.35
2023-05-22T12:34:18.910Z,14.20
2023-05-22T12:36:46.589Z,18.75
2023-05-22T12:39:17.830Z,16.52
2023-05-22T12:41:45.597Z,16.35
2023-05-22T12:44:12.940Z,13.73
2023-05-22T12:46:40.863Z,16.85
2023-05-22T12:49:07.311Z,14.98
2023-05-22T12:51:34.207Z,12.95
2023-05-22T12:54:01.943Z,15.82
2023-05-22T12:56:31.701Z,15.27
2023-05-22T12:58:58.509Z,12.55
2023-05-22T13:01:26.154Z,14.25
2023-05-22T13:03:53.054Z,13.25
2023-05-22T13:06:19.980Z,13.70
2023-05-22T13:08:46.376Z,14.10
2023-05-22T13:11:12.773Z,15.80
2023-05-22T13:13:39.740Z,14.02
2023-05-22T13:16:06.174Z,13.70
2023-05-22T13:18:32.662Z,14.05
2023-05-22T13:21:00.122Z,15.90
2023-05-22T13:23:26.484Z,16.35
2023-05-22T13:25:52.991Z,13.35
2023-05-22T13:28:19.373Z,14.43
2023-05-22T13:30:45.857Z,15.13
2023-05-22T13:33:13.410Z,17.17
2023-05-22T13:35:40.062Z,14.75
2023-05-22T13:38:06.766Z,18.05
2023-05-22T13:40:33.136Z,15.65
2023-05-22T13:42:59.528Z,13.57
2023-05-22T13:45:27.192Z,12.60
2023-05-22T13:47:53.651Z,13.90
2023-05-22T13:50:20.096Z,13.73
2023-05-22T13:52:46.563Z,14.35
2023-05-22T13:55:12.975Z,12.48
2023-05-22T13:57:41.812Z,14.75
2023-05-22T14:00:09.650Z,16.85
2023-05-22T14:02:36.271Z,12.85
2023-05-22T14:05:02.802Z,12.95
2023-05-22T14:07:29.261Z,13.23
2023-05-22T14:09:55.774Z,12.85
2023-05-22T14:12:22.180Z,12.20
2023-05-22T14:14:48.521Z,11.52
2023-05-22T14:17:14.874Z,12.20
2023-05-22T14:19:41.314Z,12.10
2023-05-22T14:22:07.922Z,15.57
2023-05-22T14:24:34.330Z,14.02
2023-05-22T14:27:00.856Z,13.57
2023-05-22T14:29:27.865Z,15.57
2023-05-22T14:31:55.446Z,12.80
2023-05-22T14:34:21.853Z,12.70
2023-05-22T14:36:48.474Z,14.10
2023-05-22T14:39:15.043Z,15.93
2023-05-22T14:41:41.404Z,14.80
2023-05-22T14:44:07.815Z,18.30
2023-05-22T14:46:34.387Z,13.68
2023-05-22T14:49:00.817Z,16.35
2023-05-22T14:51:27.193Z,15.90
2023-05-22T14:53:53.570Z,14.65
2023-05-22T14:56:19.971Z,16.35
2023-05-22T14:58:46.345Z,15.18
2023-05-22T15:01:12.830Z,13.38
2023-05-22T15:03:39.266Z,12.95
2023-05-22T15:06:05.989Z,13.93
2023-05-22T15:08:32.328Z,9.10
2023-05-22T15:10:58.697Z,10.27
2023-05-22T15:13:25.017Z,10.02
2023-05-22T15:15:51.395Z,11.80
2023-05-22T15:18:17.821Z,10.77
2023-05-22T15:20:44.285Z,14.40
2023-05-22T15:23:10.676Z,11.07
2023-05-22T15:25:37.548Z,9.77
2023-05-22T15:28:07.731Z,10.95
2023-05-22T15:30:36.378Z,9.18
2023-05-22T15:33:03.611Z,8.23
2023-05-22T15:35:31.006Z,17.23
2023-05-22T15:38:00.690Z,10.80
2023-05-22T15:40:27.103Z,11.43
2023-05-22T15:42:54.055Z,9.63
2023-05-22T15:45:20.881Z,9.82
2023-05-22T15:47:47.639Z,20.85
2023-05-22T15:50:14.008Z,23.00
2023-05-22T15:52:40.605Z,24.38
2023-05-22T15:55:07.285Z,28.75
2023-05-22T15:57:34.155Z,27.42
2023-05-22T16:00:00.582Z,29.27
2023-05-22T16:02:27.031Z,28.80
2023-05-22T16:04:53.489Z,25.33
2023-05-22T16:07:20.126Z,22.60
2023-05-22T16:09:46.626Z,27.05
2023-05-22T16:12:13.101Z,31.05
2023-05-22T16:14:40.219Z,27.75
2023-05-22T16:17:06.958Z,37.17
2023-05-22T16:19:33.783Z,33.97
2023-05-22T16:22:00.318Z,37.28
2023-05-22T16:24:26.840Z,33.63
2023-05-22T16:26:53.247Z,31.85
2023-05-22T16:29:20.612Z,33.13
2023-05-22T16:31:47.386Z,37.75
2023-05-22T16:34:13.851Z,39.47
2023-05-22T16:36:40.276Z,39.80
2023-05-22T16:39:06.611Z,37.33
2023-05-22T16:41:32.983Z,36.72
2023-05-22T16:43:59.332Z,40.35
2023-05-22T16:46:27.785Z,41.25
2023-05-22T16:48:54.247Z,45.13
2023-05-22T16:51:20.636Z,36.25
2023-05-22T16:53:47.095Z,40.13
2023-05-22T16:56:14.466Z,34.47
2023-05-22T16:58:40.892Z,37.72
2023-05-22T17:01:07.447Z,35.47
2023-05-22T17:03:34.271Z,37.17
2023-05-22T17:06:00.935Z,34.05
2023-05-22T17:08:28.345Z,33.42
2023-05-22T17:10:55.720Z,31.90
2023-05-22T17:13:22.138Z,30.83
2023-05-22T17:15:48.765Z,36.17
2023-05-22T17:18:19.478Z,32.92
2023-05-22T17:20:47.314Z,31.85
2023-05-22T17:23:14.201Z,27.77
2023-05-22T17:25:41.539Z,30.60
2023-05-22T17:28:09.048Z,30.27
2023-05-22T17:30:35.666Z,28.90
2023-05-22T17:33:03.500Z,29.45
2023-05-22T17:35:30.367Z,29.30
2023-05-22T17:37:57.184Z,28.33
2023-05-22T17:40:29.601Z,23.58
2023-05-22T17:43:06.726Z,27.65
2023-05-22T17:45:33.247Z,25.55
2023-05-22T17:47:59.759Z,29.40
2023-05-22T17:50:26.266Z,27.60
2023-05-22T17:52:52.694Z,28.48
2023-05-22T17:55:20.824Z,24.05
2023-05-22T17:57:47.335Z,25.30
2023-05-22T18:00:14.496Z,27.65
2023-05-22T18:02:41.211Z,26.83
2023-05-22T18:05:08.443Z,27.50
2023-05-22T18:07:34.829Z,26.65
2023-05-22T18:10:01.182Z,29.52
2023-05-22T18:12:31.703Z,25.48
2023-05-22T18:14:58.977Z,28.25
2023-05-22T18:17:25.368Z,24.58
2023-05-22T18:19:51.795Z,29.17
2023-05-22T18:22:18.199Z,27.42
2023-05-22T18:24:44.646Z,29.10
2023-05-22T18:27:10.994Z,29.75
2023-05-22T18:29:37.434Z,27.13
2023-05-22T18:32:05.018Z,27.63
2023-05-22T18:34:32.205Z,29.88
2023-05-22T18:36:59.598Z,29.30
2023-05-22T18:39:26.027Z,31.52
2023-05-22T18:41:52.390Z,30.77
2023-05-22T18:44:18.853Z,29.73
2023-05-22T18:46:45.433Z,30.25
2023-05-22T18:49:11.856Z,28.73
2023-05-22T18:51:38.549Z,26.33
2023-05-22T18:54:04.959Z,27.52
2023-05-22T18:56:31.647Z,30.13
2023-05-22T18:58:58.001Z,29.10
2023-05-22T19:01:24.385Z,30.95
2023-05-22T19:03:50.826Z,28.63
2023-05-22T19:06:18.751Z,27.63
2023-05-22T19:08:45.574Z,29.70
2023-05-22T19:11:11.935Z,27.17
2023-05-22T19:13:38.336Z,29.38
2023-05-22T19:16:04.730Z,29.77
2023-05-22T19:18:31.215Z,29.50
2023-05-22T19:20:57.608Z,34.15
2023-05-22T19:23:24.008Z,30.83
2023-05-22T19:25:50.768Z,28.88
2023-05-22T19:28:17.135Z,32.33
2023-05-22T19:30:43.785Z,33.20
2023-05-22T19:33:11.091Z,32.63
2023-05-22T19:35:38.506Z,34.47
2023-05-22T19:38:04.848Z,35.67
2023-05-22T19:40:31.233Z,36.42
2023-05-22T19:42:57.899Z,36.70
2023-05-22T19:45:25.893Z,35.53
2023-05-22T19:47:52.472Z,40.63
2023-05-22T19:50:18.957Z,43.93
2023-05-22T19:52:45.460Z,42.17
2023-05-22T19:55:11.790Z,41.53
2023-05-22T19:57:38.238Z,52.03
2023-05-22T20:00:07.418Z,50.23
2023-05-22T20:02:33.825Z,48.83
2023-05-22T20:05:01.828Z,52.95
2023-05-22T20:07:28.673Z,52.23
2023-05-22T20:09:55.012Z,60.17
2023-05-22T20:12:21.665Z,52.53
2023-05-22T20:14:48.045Z,57.53
2023-05-22T20:17:14.506Z,55.47
2023-05-22T20:19:45.126Z,67.97
2023-05-22T20:22:11.780Z,68.43
2023-05-22T20:24:38.391Z,62.17
2023-05-22T20:27:06.926Z,67.40
2023-05-22T20:29:33.568Z,63.07
2023-05-22T20:31:59.925Z,69.67
2023-05-22T20:34:26.609Z,75.60
2023-05-22T20:36:54.086Z,67.27
2023-05-22T20:39:22.101Z,75.23
2023-05-22T20:41:51.121Z,76.73
2023-05-22T20:44:18.596Z,71.53
2023-05-22T20:46:44.998Z,73.07
2023-05-22T20:49:12.322Z,68.70
2023-05-22T20:51:39.268Z,77.23
2023-05-22T20:54:06.011Z,78.80
2023-05-22T20:56:32.349Z,76.30
2023-05-22T20:58:58.756Z,74.07
2023-05-22T21:01:25.506Z,78.83
2023-05-22T21:03:54.432Z,68.73
2023-05-22T21:06:20.864Z,73.63
2023-05-22T21:08:47.312Z,70.47
2023-05-22T21:11:14.007Z,66.43
2023-05-22T21:13:40.476Z,77.50
2023-05-22T21:16:07.124Z,75.17
2023-05-22T21:18:33.611Z,73.10
2023-05-22T21:21:00.131Z,81.63
2023-05-22T21:23:26.512Z,70.97
2023-05-22T21:25:52.908Z,67.63
2023-05-22T21:28:19.294Z,66.10
2023-05-22T21:30:45.699Z,76.07
2023-05-22T21:33:12.151Z,68.70
2023-05-22T21:35:38.528Z,73.93
2023-05-22T21:38:04.986Z,66.73
2023-05-22T21:40:31.319Z,72.13
2023-05-22T21:42:57.679Z,69.07
2023-05-22T21:45:24.113Z,68.47
2023-05-22T21:47:50.618Z,66.10
2023-05-22T21:50:17.033Z,65.37
2023-05-22T21:52:44.174Z,70.43
2023-05-22T21:55:10.723Z,65.57
2023-05-22T21:57:37.129Z,66.20
2023-05-22T22:00:04.184Z,68.17
2023-05-22T22:02:30.626Z,62.43
2023-05-22T22:04:56.959Z,56.23
2023-05-22T22:07:23.305Z,63.57
2023-05-22T22:09:49.659Z,64.00
2023-05-22T22:12:15.989Z,60.50
2023-05-22T22:14:42.370Z,62.67
2023-05-22T22:17:08.985Z,59.80
2023-05-22T22:19:36.148Z,65.00
2023-05-22T22:22:02.985Z,55.93
2023-05-22T22:24:29.648Z,56.53
2023-05-22T22:26:56.651Z,53.90
2023-05-22T22:29:23.025Z,61.33
2023-05-22T22:31:49.498Z,57.80
2023-05-22T22:34:15.906Z,57.23
2023-05-22T22:36:42.350Z,53.57
2023-05-22T22:39:08.746Z,61.23
2023-05-22T22:41:35.095Z,57.57
2023-05-22T22:44:01.525Z,52.60
2023-05-22T22:46:27.936Z,53.47
2023-05-22T22:48:55.342Z,55.03
2023-05-22T22:51:22.077Z,52.20
2023-05-22T22:53:48.457Z,53.53
2023-05-22T22:56:14.864Z,49.83
2023-05-22T22:58:41.229Z,49.70
2023-05-22T23:01:07.659Z,50.17
2023-05-22T23:03:34.042Z,42.90
2023-05-22T23:06:00.395Z,46.43
2023-05-22T23:08:26.951Z,44.93
2023-05-22T23:10:53.297Z,43.93
2023-05-22T23:13:19.713Z,43.10
2023-05-22T23:15:46.379Z,46.07
2023-05-22T23:18:13.899Z,42.50
2023-05-22T23:20:40.289Z,37.43
2023-05-22T23:23:06.682Z,41.00
2023-05-22T23:25:33.052Z,35.43
2023-05-22T23:27:59.396Z,37.20
2023-05-22T23:30:25.820Z,37.83
2023-05-22T23:32:52.293Z,39.40
2023-05-22T23:35:18.641Z,41.40
2023-05-22T23:37:47.676Z,35.53
2023-05-22T23:40:14.099Z,34.87
2023-05-22T23:42:40.718Z,31.90
2023-05-22T23:45:07.694Z,32.30
2023-05-22T23:47:34.094Z,34.97
2023-05-22T23:50:00.660Z,38.80
2023-05-22T23:52:27.101Z,31.30
2023-05-22T23:54:53.759Z,34.33
2023-05-22T23:57:20.151Z,39.10
2023-05-22T23:59:46.744Z,33.53
